Time;durP1;ratioP1;P1;durP2;ratioP2;P2;SDS_P1;SDS_P2;PMS_P1;PMS_P2;Temp;Humidity;BMP_temperature;BMP_pressure;BME280_temperature;BME280_humidity;BME280_pressure;Samples;Min_cycle;Max_cycle;Signal;HPM_P1;HPM_P2
2023/02/13 00:00:47;;;;;;;169.00;18.85;;;;;;;;;;5062685;28;20032;-58
2023/02/13 00:03:13;;;;;;;251.40;21.85;;;;;;;;;;5061400;28;20085;-59
2023/02/13 00:05:38;;;;;;;170.93;17.40;;;;;;;;;;5068567;28;20039;-58
2023/02/13 00:08:03;;;;;;;175.30;18.98;;;;;;;;;;5082791;28;20094;-59
2023/02/13 00:10:28;;;;;;;154.88;18.98;;;;;;;;;;5080458;28;20043;-58
2023/02/13 00:12:54;;;;;;;160.93;17.58;;;;;;;;;;5065877;28;20406;-58
2023/02/13 00:15:19;;;;;;;209.52;18.92;;;;;;;;;;5063254;28;20746;-58
2023/02/13 00:17:44;;;;;;;176.88;17.95;;;;;;;;;;5064994;28;20024;-58
2023/02/13 00:20:10;;;;;;;178.27;17.37;;;;;;;;;;5063636;28;20069;-58
2023/02/13 00:22:35;;;;;;;182.35;17.00;;;;;;;;;;5064998;28;20275;-57
2023/02/13 00:25:01;;;;;;;164.50;17.02;;;;;;;;;;5064751;28;20025;-57
2023/02/13 00:27:26;;;;;;;172.25;16.38;;;;;;;;;;5063073;28;20064;-59
2023/02/13 00:29:51;;;;;;;175.63;15.35;;;;;;;;;;5064655;28;20008;-58
2023/02/13 00:32:16;;;;;;;144.27;14.77;;;;;;;;;;5064446;28;20037;-58
2023/02/13 00:34:42;;;;;;;216.73;15.93;;;;;;;;;;5065440;28;20073;-57
2023/02/13 00:37:08;;;;;;;174.23;14.60;;;;;;;;;;5064199;28;20297;-59
2023/02/13 00:39:33;;;;;;;178.68;14.55;;;;;;;;;;5065808;28;20478;-57
2023/02/13 00:41:58;;;;;;;196.50;15.45;;;;;;;;;;5064255;28;20803;-58
2023/02/13 00:44:23;;;;;;;156.48;13.43;;;;;;;;;;5066372;28;20096;-58
2023/02/13 00:46:49;;;;;;;181.02;14.68;;;;;;;;;;5063398;28;20159;-58
2023/02/13 00:49:14;;;;;;;155.85;13.55;;;;;;;;;;5064656;28;20020;-57
2023/02/13 00:51:39;;;;;;;207.27;16.75;;;;;;;;;;5062438;28;20037;-57
2023/02/13 00:54:04;;;;;;;218.10;16.40;;;;;;;;;;5064118;28;20020;-57
2023/02/13 00:56:29;;;;;;;157.98;15.02;;;;;;;;;;5065002;28;20089;-57
2023/02/13 00:58:55;;;;;;;148.55;15.32;;;;;;;;;;5064605;28;20024;-57
2023/02/13 01:01:20;;;;;;;178.65;15.77;;;;;;;;;;5067608;28;20857;-57
2023/02/13 01:03:45;;;;;;;147.07;13.97;;;;;;;;;;5066420;28;20400;-57
2023/02/13 01:06:10;;;;;;;219.38;15.85;;;;;;;;;;5067171;28;20772;-57
2023/02/13 01:08:38;;;;;;;164.25;15.88;;;;;;;;;;5068822;28;20027;-57
2023/02/13 01:11:03;;;;;;;160.93;14.80;;;;;;;;;;5066657;28;20037;-57
2023/02/13 01:13:28;;;;;;;211.48;16.35;;;;;;;;;;5069015;28;20029;-55
2023/02/13 01:15:54;;;;;;;120.75;13.30;;;;;;;;;;5066630;28;20043;-57
2023/02/13 01:18:19;;;;;;;184.93;16.88;;;;;;;;;;5071389;28;20718;-58
2023/02/13 01:20:45;;;;;;;191.60;15.68;;;;;;;;;;5068352;28;20032;-57
2023/02/13 01:23:11;;;;;;;150.15;14.52;;;;;;;;;;5067261;28;20040;-58
2023/02/13 01:25:42;;;;;;;209.55;17.15;;;;;;;;;;5066767;28;20529;-57
2023/02/13 01:28:07;;;;;;;195.10;16.93;;;;;;;;;;5067323;28;20063;-58
2023/02/13 01:30:33;;;;;;;192.55;17.35;;;;;;;;;;5066168;28;20087;-57
2023/02/13 01:32:58;;;;;;;150.63;14.18;;;;;;;;;;5067167;28;20019;-57
2023/02/13 01:35:23;;;;;;;163.57;19.02;;;;;;;;;;5068528;28;20796;-57
2023/02/13 01:37:49;;;;;;;212.48;15.98;;;;;;;;;;5068655;28;20411;-57
2023/02/13 01:40:14;;;;;;;173.73;12.50;;;;;;;;;;5066888;28;20830;-58
2023/02/13 01:42:40;;;;;;;174.35;14.85;;;;;;;;;;5065855;28;20032;-56
2023/02/13 01:45:25;;;;;;;163.18;15.52;;;;;;;;;;5066277;28;20021;-56
2023/02/13 01:47:56;;;;;;;170.25;11.05;;;;;;;;;;5086807;28;20699;-57
2023/02/13 01:50:47;;;;;;;151.23;9.93;;;;;;;;;;5087142;28;20043;-57
2023/02/13 01:53:15;;;;;;;165.75;14.30;;;;;;;;;;5085960;28;20333;-57
2023/02/13 01:55:49;;;;;;;141.48;13.55;;;;;;;;;;5069358;28;20290;-56
2023/02/13 01:58:17;;;;;;;186.38;13.55;;;;;;;;;;5087711;28;20130;-56
2023/02/13 02:00:48;;;;;;;207.45;15.27;;;;;;;;;;5087180;28;20040;-56
2023/02/13 02:03:16;;;;;;;203.57;14.30;;;;;;;;;;5084855;28;20016;-56
2023/02/13 02:05:42;;;;;;;166.27;12.30;;;;;;;;;;5087490;28;20039;-57
2023/02/13 02:08:09;;;;;;;198.93;14.05;;;;;;;;;;5087365;28;20382;-59
2023/02/13 02:10:35;;;;;;;161.10;12.20;;;;;;;;;;5086996;28;20032;-57
2023/02/13 02:13:10;;;;;;;159.63;12.85;;;;;;;;;;5087446;28;20026;-56
2023/02/13 02:15:36;;;;;;;175.15;12.88;;;;;;;;;;5087577;28;20074;-57
2023/02/13 02:18:01;;;;;;;167.07;12.10;;;;;;;;;;5088976;28;20131;-56
2023/02/13 02:20:48;;;;;;;179.10;13.95;;;;;;;;;;5084744;28;20032;-56
2023/02/13 02:23:22;;;;;;;162.32;12.27;;;;;;;;;;5087648;28;20050;-57
2023/02/13 02:26:23;;;;;;;173.27;12.00;;;;;;;;;;5088473;28;20164;-57
2023/02/13 02:28:48;;;;;;;159.75;12.48;;;;;;;;;;4999864;28;20532;-57
2023/02/13 02:31:32;;;;;;;156.30;11.97;;;;;;;;;;5067526;28;20038;-58
2023/02/13 02:34:13;;;;;;;157.80;11.98;;;;;;;;;;5084807;28;20246;-57
2023/02/13 02:36:50;;;;;;;173.77;11.93;;;;;;;;;;5087774;28;20031;-56
2023/02/13 02:39:21;;;;;;;168.70;12.45;;;;;;;;;;5087922;28;20012;-57
2023/02/13 02:42:05;;;;;;;249.90;16.17;;;;;;;;;;5086277;28;20888;-56
2023/02/13 02:44:32;;;;;;;160.23;10.90;;;;;;;;;;5087027;28;20038;-56
2023/02/13 02:50:20;;;;;;;221.50;17.10;;;;;;;;;;5088082;28;20022;-55
2023/02/13 02:52:54;;;;;;;135.32;10.90;;;;;;;;;;5068279;28;20086;-56
2023/02/13 02:55:28;;;;;;;157.95;12.23;;;;;;;;;;5085008;28;20055;-56
2023/02/13 03:06:16;;;;;;;196.13;12.05;;;;;;;;;;5085167;28;20039;-56
2023/02/13 03:14:13;;;;;;;219.05;12.35;;;;;;;;;;5087062;28;20122;-55
2023/02/13 03:22:23;;;;;;;198.55;12.23;;;;;;;;;;5084207;28;20047;-57
2023/02/13 03:24:57;;;;;;;187.23;11.32;;;;;;;;;;5086189;28;20020;-56
2023/02/13 03:30:18;;;;;;;196.85;10.40;;;;;;;;;;5086510;28;20105;-56
2023/02/13 03:33:02;;;;;;;217.85;10.90;;;;;;;;;;5084582;28;20032;-57
2023/02/13 03:38:39;;;;;;;132.95;5.93;;;;;;;;;;5088338;28;20021;-57
2023/02/13 03:41:19;;;;;;;176.20;10.45;;;;;;;;;;5085474;28;20036;-57
2023/02/13 03:43:50;;;;;;;184.25;10.20;;;;;;;;;;5084377;28;20016;-57
2023/02/13 03:46:17;;;;;;;158.95;8.68;;;;;;;;;;5084061;28;20678;-57
2023/02/13 03:51:36;;;;;;;151.95;12.45;;;;;;;;;;5088081;28;20088;-57
2023/02/13 03:54:04;;;;;;;181.90;10.40;;;;;;;;;;5086637;28;20692;-55
2023/02/13 03:59:26;;;;;;;187.20;9.85;;;;;;;;;;5084126;28;20084;-56
2023/02/13 04:02:10;;;;;;;259.58;15.05;;;;;;;;;;5079732;28;20450;-57
2023/02/13 04:04:56;;;;;;;152.80;10.93;;;;;;;;;;5084637;28;20109;-57
2023/02/13 04:07:30;;;;;;;183.43;11.00;;;;;;;;;;5082491;28;20562;-56
2023/02/13 04:09:57;;;;;;;187.77;10.68;;;;;;;;;;5085384;28;20542;-56
2023/02/13 04:12:36;;;;;;;200.85;10.60;;;;;;;;;;5086024;28;20036;-56
2023/02/13 04:15:20;;;;;;;174.15;11.23;;;;;;;;;;5083641;28;20043;-57
2023/02/13 04:17:50;;;;;;;149.48;9.75;;;;;;;;;;5066691;28;20032;-56
2023/02/13 04:20:17;;;;;;;152.07;9.88;;;;;;;;;;5065587;28;20114;-56
2023/02/13 04:22:46;;;;;;;215.05;11.18;;;;;;;;;;5064379;28;20025;-56
2023/02/13 04:25:12;;;;;;;158.30;10.80;;;;;;;;;;5066068;28;20505;-56
2023/02/13 04:27:37;;;;;;;170.75;10.98;;;;;;;;;;5065654;28;20690;-57
2023/02/13 04:30:03;;;;;;;175.93;9.45;;;;;;;;;;5066000;28;20796;-57
2023/02/13 04:32:28;;;;;;;172.18;10.18;;;;;;;;;;5064744;28;20470;-57
2023/02/13 04:34:53;;;;;;;228.13;12.63;;;;;;;;;;5065585;28;20021;-56
2023/02/13 04:37:19;;;;;;;199.45;11.48;;;;;;;;;;5068742;28;20037;-57
2023/02/13 04:39:44;;;;;;;179.60;11.00;;;;;;;;;;5068655;28;20020;-57
2023/02/13 04:42:09;;;;;;;242.60;10.80;;;;;;;;;;5068152;28;20047;-56
2023/02/13 04:44:34;;;;;;;179.27;11.00;;;;;;;;;;5069223;28;20009;-56
2023/02/13 04:46:59;;;;;;;232.80;12.70;;;;;;;;;;5068408;28;20547;-57
2023/02/13 04:49:25;;;;;;;189.15;11.10;;;;;;;;;;5067599;28;20012;-56
2023/02/13 04:51:50;;;;;;;246.43;12.68;;;;;;;;;;5067440;28;20036;-56
2023/02/13 04:54:15;;;;;;;231.20;13.38;;;;;;;;;;5069643;28;20097;-57
2023/02/13 04:56:40;;;;;;;195.40;10.57;;;;;;;;;;5068865;28;20036;-55
2023/02/13 04:59:05;;;;;;;226.40;11.88;;;;;;;;;;5068259;28;20282;-57
2023/02/13 05:01:31;;;;;;;171.77;10.82;;;;;;;;;;5067486;28;20036;-57
2023/02/13 05:03:56;;;;;;;202.60;10.47;;;;;;;;;;5067289;28;20048;-58
2023/02/13 05:06:21;;;;;;;217.87;13.07;;;;;;;;;;5067626;28;20281;-57
2023/02/13 05:08:47;;;;;;;117.68;5.85;;;;;;;;;;5069284;28;20285;-56
2023/02/13 05:11:13;;;;;;;198.52;11.30;;;;;;;;;;5068022;28;20051;-57
2023/02/13 05:13:38;;;;;;;210.27;12.10;;;;;;;;;;5067833;28;20025;-57
2023/02/13 05:16:03;;;;;;;207.05;11.32;;;;;;;;;;5068882;28;20036;-56
2023/02/13 05:18:28;;;;;;;146.57;6.50;;;;;;;;;;5068164;28;20022;-58
2023/02/13 05:23:38;;;;;;;276.90;14.75;;;;;;;;;;5064604;28;20556;-57
2023/02/13 05:26:03;;;;;;;237.18;12.90;;;;;;;;;;5066606;28;20036;-57
2023/02/13 05:31:12;;;;;;;144.18;9.70;;;;;;;;;;5068720;28;20039;-57
2023/02/13 05:33:37;;;;;;;149.00;9.18;;;;;;;;;;5069546;28;20024;-56
2023/02/13 05:36:03;;;;;;;197.23;9.98;;;;;;;;;;5068043;28;20113;-58
2023/02/13 05:38:28;;;;;;;181.02;9.10;;;;;;;;;;5067918;28;20032;-58
2023/02/13 05:40:53;;;;;;;271.25;12.68;;;;;;;;;;5065812;28;20755;-56
2023/02/13 05:43:19;;;;;;;182.75;8.82;;;;;;;;;;5066940;28;20793;-57
2023/02/13 05:45:44;;;;;;;159.32;7.53;;;;;;;;;;5067053;28;20407;-57
2023/02/13 05:48:10;;;;;;;195.95;11.32;;;;;;;;;;5065762;28;20030;-56
2023/02/13 05:50:35;;;;;;;220.70;11.43;;;;;;;;;;5068377;28;20036;-58
2023/02/13 05:53:00;;;;;;;254.57;12.07;;;;;;;;;;5066597;28;20028;-57
2023/02/13 05:55:25;;;;;;;164.27;10.13;;;;;;;;;;5068732;28;20016;-57
2023/02/13 05:57:54;;;;;;;177.77;10.88;;;;;;;;;;5068450;28;20093;-56
2023/02/13 06:00:20;;;;;;;212.00;10.88;;;;;;;;;;5067149;28;20028;-58
2023/02/13 06:02:45;;;;;;;134.75;8.38;;;;;;;;;;5067414;28;20505;-56
2023/02/13 06:05:10;;;;;;;160.80;8.73;;;;;;;;;;5065792;28;20024;-57
2023/02/13 06:07:35;;;;;;;186.02;10.55;;;;;;;;;;5068121;28;20243;-56
2023/02/13 06:10:01;;;;;;;204.07;10.75;;;;;;;;;;5067053;28;20040;-57
2023/02/13 06:12:26;;;;;;;213.10;9.02;;;;;;;;;;5064640;28;20453;-57
2023/02/13 06:14:51;;;;;;;174.15;10.25;;;;;;;;;;5068694;28;20035;-58
2023/02/13 06:17:16;;;;;;;212.35;11.00;;;;;;;;;;5067496;28;20046;-58
2023/02/13 06:19:42;;;;;;;214.82;11.02;;;;;;;;;;5067163;28;20024;-57
2023/02/13 06:22:07;;;;;;;179.45;10.60;;;;;;;;;;5065608;28;20039;-60
2023/02/13 06:24:32;;;;;;;236.50;12.30;;;;;;;;;;5065086;28;20016;-57
2023/02/13 06:26:57;;;;;;;144.40;8.48;;;;;;;;;;5066997;28;20039;-58
2023/02/13 06:29:22;;;;;;;164.30;9.13;;;;;;;;;;5066573;28;20035;-56
2023/02/13 06:31:48;;;;;;;251.18;13.05;;;;;;;;;;5066361;28;20043;-56
2023/02/13 06:34:13;;;;;;;162.18;9.05;;;;;;;;;;5066522;28;20046;-56
2023/02/13 06:36:40;;;;;;;151.18;9.38;;;;;;;;;;5067087;28;20036;-58
2023/02/13 06:39:05;;;;;;;242.38;21.65;;;;;;;;;;5067252;28;20093;-57
2023/02/13 06:41:31;;;;;;;169.85;11.20;;;;;;;;;;5066129;28;20506;-56
2023/02/13 06:43:56;;;;;;;233.07;11.15;;;;;;;;;;5066803;28;20012;-56
2023/02/13 06:46:21;;;;;;;156.43;8.80;;;;;;;;;;5066282;28;20029;-58
2023/02/13 06:48:46;;;;;;;133.38;6.75;;;;;;;;;;5065970;28;20600;-56
2023/02/13 06:51:11;;;;;;;199.25;11.98;;;;;;;;;;5065450;28;20117;-57
2023/02/13 06:53:37;;;;;;;178.48;9.73;;;;;;;;;;5067871;28;20082;-57
2023/02/13 06:56:04;;;;;;;162.90;9.57;;;;;;;;;;5064957;28;20833;-57
2023/02/13 06:58:29;;;;;;;187.05;10.73;;;;;;;;;;5069570;28;20020;-56
2023/02/13 07:00:54;;;;;;;186.60;9.88;;;;;;;;;;5067838;28;20037;-56
2023/02/13 07:03:20;;;;;;;218.10;10.93;;;;;;;;;;5064156;28;20544;-57
2023/02/13 07:05:45;;;;;;;238.30;11.98;;;;;;;;;;5064828;28;20271;-58
2023/02/13 07:08:11;;;;;;;255.45;12.45;;;;;;;;;;5067565;28;20039;-57
2023/02/13 07:10:40;;;;;;;177.82;9.02;;;;;;;;;;5065032;28;20036;-56
2023/02/13 07:13:05;;;;;;;143.15;7.00;;;;;;;;;;5065062;28;20023;-57
2023/02/13 07:15:31;;;;;;;259.40;12.27;;;;;;;;;;5065505;28;20036;-56
2023/02/13 07:17:56;;;;;;;253.15;12.65;;;;;;;;;;5064500;28;20024;-55
2023/02/13 07:20:22;;;;;;;307.65;14.77;;;;;;;;;;5064750;28;20024;-57
2023/02/13 07:22:48;;;;;;;262.45;14.68;;;;;;;;;;5064072;28;20080;-57
2023/02/13 07:25:13;;;;;;;271.75;13.90;;;;;;;;;;5066142;28;20016;-56
2023/02/13 07:27:38;;;;;;;210.98;11.25;;;;;;;;;;5050458;28;20031;-56
2023/02/13 07:30:04;;;;;;;116.28;6.03;;;;;;;;;;5065919;28;20562;-56
2023/02/13 07:32:29;;;;;;;295.25;17.33;;;;;;;;;;5084755;28;20035;-56
2023/02/13 07:34:54;;;;;;;238.38;12.68;;;;;;;;;;5087167;28;20027;-57
2023/02/13 07:37:19;;;;;;;192.95;11.65;;;;;;;;;;5084496;28;20038;-56
2023/02/13 07:39:45;;;;;;;229.43;13.35;;;;;;;;;;5086590;28;20116;-57
2023/02/13 07:42:10;;;;;;;154.80;9.60;;;;;;;;;;5083422;28;20032;-58
2023/02/13 07:44:35;;;;;;;123.75;9.15;;;;;;;;;;5087497;28;20051;-57
2023/02/13 07:47:00;;;;;;;196.30;10.52;;;;;;;;;;5083772;28;20074;-56
2023/02/13 07:49:26;;;;;;;170.77;10.25;;;;;;;;;;5088323;28;20417;-57
2023/02/13 07:51:51;;;;;;;255.38;13.57;;;;;;;;;;5085602;28;20039;-57
2023/02/13 07:54:16;;;;;;;246.32;14.70;;;;;;;;;;5085606;28;20016;-57
2023/02/13 07:56:41;;;;;;;726.75;47.50;;;;;;;;;;5086266;28;20032;-57
2023/02/13 07:59:06;;;;;;;381.53;25.20;;;;;;;;;;5071386;28;20020;-56
2023/02/13 08:01:32;;;;;;;153.30;8.95;;;;;;;;;;5086447;28;20682;-58
2023/02/13 08:03:57;;;;;;;133.45;7.18;;;;;;;;;;5085799;28;20065;-57
2023/02/13 08:06:22;;;;;;;179.35;10.02;;;;;;;;;;5084982;28;20035;-57
2023/02/13 08:08:47;;;;;;;93.00;6.80;;;;;;;;;;5084802;28;20023;-59
2023/02/13 08:14:14;;;;;;;124.30;9.90;;;;;;;;;;5085817;28;20022;-58
2023/02/13 08:16:39;;;;;;;150.98;8.65;;;;;;;;;;5086932;28;20032;-59
2023/02/13 08:19:04;;;;;;;115.32;9.73;;;;;;;;;;5085768;28;20656;-57
2023/02/13 08:21:30;;;;;;;153.65;7.85;;;;;;;;;;5084725;28;20028;-56
2023/02/13 08:23:55;;;;;;;145.60;9.93;;;;;;;;;;5086054;28;20035;-57
2023/02/13 08:26:20;;;;;;;140.30;9.73;;;;;;;;;;5086608;28;20032;-57
2023/02/13 08:28:45;;;;;;;163.33;10.00;;;;;;;;;;5085544;28;20250;-57
2023/02/13 08:31:11;;;;;;;128.27;9.43;;;;;;;;;;5086123;28;20262;-58
2023/02/13 08:33:36;;;;;;;110.50;8.02;;;;;;;;;;5083348;28;20031;-58
2023/02/13 08:36:02;;;;;;;144.23;8.82;;;;;;;;;;5083624;28;20040;-58
2023/02/13 08:38:27;;;;;;;113.70;6.95;;;;;;;;;;5086666;28;20030;-58
2023/02/13 08:40:55;;;;;;;144.50;8.82;;;;;;;;;;5084951;28;20028;-58
2023/02/13 08:43:20;;;;;;;125.43;7.70;;;;;;;;;;5084768;28;20580;-58
2023/02/13 08:45:45;;;;;;;117.63;7.50;;;;;;;;;;5087640;28;20609;-57
2023/02/13 08:48:10;;;;;;;164.60;8.90;;;;;;;;;;5085216;28;20514;-57
2023/02/13 08:50:36;;;;;;;172.20;10.35;;;;;;;;;;5085744;28;20513;-58
2023/02/13 08:53:01;;;;;;;156.65;10.65;;;;;;;;;;5084763;28;20031;-59
2023/02/13 08:55:27;;;;;;;111.65;6.45;;;;;;;;;;5085484;28;20024;-58
2023/02/13 08:57:53;;;;;;;146.20;10.38;;;;;;;;;;5084789;28;20015;-59
2023/02/13 09:00:18;;;;;;;157.73;7.53;;;;;;;;;;5085372;28;20084;-61
2023/02/13 09:02:44;;;;;;;121.28;7.57;;;;;;;;;;5084643;28;20394;-58
2023/02/13 09:05:09;;;;;;;135.17;8.97;;;;;;;;;;5082469;28;20024;-60
2023/02/13 09:07:34;;;;;;;181.68;8.40;;;;;;;;;;5084360;28;20250;-59
2023/02/13 09:09:59;;;;;;;115.75;8.70;;;;;;;;;;5083445;28;20099;-57
2023/02/13 09:12:25;;;;;;;156.90;9.67;;;;;;;;;;5084215;28;20036;-56
2023/02/13 09:14:51;;;;;;;136.23;8.73;;;;;;;;;;5085161;28;20341;-57
2023/02/13 09:17:18;;;;;;;122.13;7.57;;;;;;;;;;5083539;28;20184;-58
2023/02/13 09:19:45;;;;;;;176.95;10.85;;;;;;;;;;5085499;28;20026;-57
2023/02/13 09:22:10;;;;;;;139.05;10.05;;;;;;;;;;5086196;28;20036;-58
2023/02/13 09:24:35;;;;;;;145.43;9.50;;;;;;;;;;5090184;28;20051;-58
2023/02/13 09:27:02;;;;;;;144.80;9.40;;;;;;;;;;5088558;28;20166;-58
2023/02/13 09:29:30;;;;;;;135.93;9.07;;;;;;;;;;5088406;28;20406;-58
2023/02/13 09:31:55;;;;;;;179.55;10.40;;;;;;;;;;5085771;28;20040;-57
2023/02/13 09:34:21;;;;;;;143.27;9.45;;;;;;;;;;5087637;28;20016;-57
2023/02/13 09:36:50;;;;;;;143.07;9.70;;;;;;;;;;5088055;28;20036;-58
2023/02/13 09:39:15;;;;;;;136.45;8.90;;;;;;;;;;5087830;28;20016;-58
2023/02/13 09:41:41;;;;;;;175.90;10.73;;;;;;;;;;5084699;28;20039;-56
2023/02/13 09:44:32;;;;;;;180.27;11.13;;;;;;;;;;5088096;28;20535;-58
2023/02/13 09:46:58;;;;;;;138.95;9.32;;;;;;;;;;5088499;28;20037;-58
2023/02/13 09:49:26;;;;;;;159.38;8.30;;;;;;;;;;5088454;28;20019;-58
2023/02/13 09:51:55;;;;;;;218.32;11.50;;;;;;;;;;5086444;28;20059;-58
2023/02/13 09:54:20;;;;;;;161.60;9.07;;;;;;;;;;5088938;28;20542;-58
2023/02/13 09:57:06;;;;;;;120.47;8.77;;;;;;;;;;5087415;28;20586;-57
2023/02/13 09:59:37;;;;;;;150.07;9.55;;;;;;;;;;5086324;28;20353;-57
2023/02/13 10:02:22;;;;;;;152.85;9.38;;;;;;;;;;5083492;28;20698;-58
2023/02/13 10:04:50;;;;;;;129.02;9.20;;;;;;;;;;5073804;28;20044;-59
2023/02/13 10:07:30;;;;;;;143.75;9.30;;;;;;;;;;5089203;28;20032;-57
2023/02/13 10:10:11;;;;;;;140.02;10.15;;;;;;;;;;5089318;28;20020;-58
2023/02/13 10:12:43;;;;;;;192.27;11.77;;;;;;;;;;5086792;28;20122;-57
2023/02/13 10:15:14;;;;;;;131.13;10.43;;;;;;;;;;5087061;28;20012;-58
2023/02/13 10:17:42;;;;;;;162.02;10.63;;;;;;;;;;5066852;28;20036;-57
2023/02/13 10:20:16;;;;;;;125.30;8.80;;;;;;;;;;5065791;28;20518;-59
2023/02/13 10:22:50;;;;;;;165.02;11.90;;;;;;;;;;5065826;28;20518;-59
2023/02/13 10:25:16;;;;;;;143.45;10.55;;;;;;;;;;5067852;28;20042;-58
2023/02/13 10:27:45;;;;;;;143.47;9.37;;;;;;;;;;5067328;28;20412;-59
2023/02/13 10:30:15;;;;;;;120.78;9.02;;;;;;;;;;5068644;28;20254;-58
2023/02/13 10:32:40;;;;;;;136.93;10.02;;;;;;;;;;5063735;28;20056;-59
2023/02/13 10:35:14;;;;;;;171.87;11.90;;;;;;;;;;5065754;28;20054;-57
2023/02/13 10:37:40;;;;;;;123.70;9.77;;;;;;;;;;5067801;28;20860;-58
2023/02/13 10:40:09;;;;;;;164.40;11.38;;;;;;;;;;5064600;28;20028;-60
2023/02/13 10:42:34;;;;;;;137.93;10.30;;;;;;;;;;5065946;28;20020;-58
2023/02/13 10:45:09;;;;;;;128.95;9.48;;;;;;;;;;5066945;28;20047;-58
2023/02/13 10:47:45;;;;;;;135.70;10.05;;;;;;;;;;5067569;28;20067;-59
2023/02/13 10:50:29;;;;;;;186.00;11.63;;;;;;;;;;5066139;28;20463;-58
2023/02/13 10:52:54;;;;;;;124.93;9.20;;;;;;;;;;5065767;28;20087;-60
2023/02/13 10:55:57;;;;;;;156.80;10.57;;;;;;;;;;5065730;28;20078;-60
2023/02/13 10:58:32;;;;;;;178.30;11.32;;;;;;;;;;4995017;28;20267;-58
2023/02/13 11:01:15;;;;;;;121.75;7.55;;;;;;;;;;4994353;28;20040;-59
2023/02/13 11:03:41;;;;;;;148.23;9.45;;;;;;;;;;5039354;28;20109;-57
2023/02/13 11:06:07;;;;;;;152.65;9.07;;;;;;;;;;5059083;28;20028;-59
2023/02/13 11:08:44;;;;;;;168.55;11.38;;;;;;;;;;5062412;28;20059;-59
2023/02/13 11:11:30;;;;;;;156.35;10.70;;;;;;;;;;5065098;28;20050;-58
2023/02/13 11:14:14;;;;;;;123.38;9.02;;;;;;;;;;5064725;28;20019;-59
2023/02/13 11:16:39;;;;;;;173.27;11.65;;;;;;;;;;5066394;28;20037;-61
2023/02/13 11:19:04;;;;;;;114.00;9.05;;;;;;;;;;5064879;28;20457;-58
2023/02/13 11:21:34;;;;;;;157.32;11.98;;;;;;;;;;5063238;28;20167;-59
2023/02/13 11:23:59;;;;;;;182.77;11.50;;;;;;;;;;5063099;28;20073;-58
2023/02/13 11:26:27;;;;;;;147.13;10.23;;;;;;;;;;5065301;28;20123;-58
2023/02/13 11:28:54;;;;;;;166.32;10.88;;;;;;;;;;5062465;28;20016;-59
2023/02/13 11:31:25;;;;;;;160.15;11.65;;;;;;;;;;5063536;28;20036;-57
2023/02/13 11:33:50;;;;;;;159.85;11.10;;;;;;;;;;5066546;28;20582;-58
2023/02/13 11:36:21;;;;;;;153.85;11.10;;;;;;;;;;5060876;28;20024;-57
2023/02/13 11:38:55;;;;;;;129.38;9.15;;;;;;;;;;5065965;28;20054;-57
2023/02/13 11:41:21;;;;;;;120.50;8.48;;;;;;;;;;5064453;28;20033;-56
2023/02/13 11:43:48;;;;;;;135.68;8.27;;;;;;;;;;5063372;28;20055;-58
2023/02/13 11:46:19;;;;;;;170.23;9.30;;;;;;;;;;5065748;28;20024;-57
2023/02/13 11:48:54;;;;;;;169.45;9.00;;;;;;;;;;5064376;28;20020;-58
2023/02/13 11:51:33;;;;;;;167.00;9.45;;;;;;;;;;5062787;28;20197;-58
2023/02/13 11:53:59;;;;;;;131.43;7.93;;;;;;;;;;5062089;28;20432;-57
2023/02/13 11:56:25;;;;;;;145.23;8.07;;;;;;;;;;5064142;28;20028;-58
2023/02/13 11:58:59;;;;;;;143.68;8.70;;;;;;;;;;5065564;28;20031;-58
2023/02/13 12:01:27;;;;;;;173.38;8.75;;;;;;;;;;5064563;28;20141;-58
2023/02/13 12:04:01;;;;;;;113.93;8.23;;;;;;;;;;5064328;28;20025;-59
2023/02/13 12:06:26;;;;;;;127.90;7.93;;;;;;;;;;5064432;28;20043;-58
2023/02/13 12:08:52;;;;;;;103.07;7.35;;;;;;;;;;5065561;28;20013;-59
2023/02/13 12:11:29;;;;;;;136.52;8.60;;;;;;;;;;5064102;28;20036;-58
2023/02/13 12:13:54;;;;;;;118.63;8.57;;;;;;;;;;5063555;28;20013;-57
2023/02/13 12:16:28;;;;;;;129.20;8.10;;;;;;;;;;5057528;28;20049;-59
2023/02/13 12:18:55;;;;;;;157.60;10.00;;;;;;;;;;5064736;28;20025;-58
2023/02/13 12:21:21;;;;;;;130.50;8.68;;;;;;;;;;5064945;28;20036;-58
2023/02/13 12:23:56;;;;;;;170.27;9.83;;;;;;;;;;5065166;28;20444;-58
2023/02/13 12:26:41;;;;;;;133.57;8.95;;;;;;;;;;5063905;28;20350;-58
2023/02/13 12:29:31;;;;;;;149.55;9.90;;;;;;;;;;5064877;28;20008;-58
2023/02/13 12:31:56;;;;;;;186.05;9.30;;;;;;;;;;5064700;28;20048;-58
2023/02/13 12:34:37;;;;;;;139.87;7.77;;;;;;;;;;5064648;28;20025;-59
2023/02/13 12:37:02;;;;;;;184.70;10.27;;;;;;;;;;5063634;28;20107;-59
2023/02/13 12:39:35;;;;;;;139.80;8.97;;;;;;;;;;5066852;28;20920;-59
2023/02/13 12:42:01;;;;;;;200.63;10.23;;;;;;;;;;5063525;28;20313;-59
2023/02/13 12:44:38;;;;;;;147.02;8.82;;;;;;;;;;5064706;28;20020;-59
2023/02/13 12:47:06;;;;;;;161.85;8.90;;;;;;;;;;5063485;28;20037;-59
2023/02/13 12:49:50;;;;;;;142.68;8.82;;;;;;;;;;5064215;28;20056;-59
2023/02/13 12:52:34;;;;;;;189.35;10.05;;;;;;;;;;5062717;28;20825;-58
2023/02/13 12:55:05;;;;;;;132.75;8.05;;;;;;;;;;5066993;28;20086;-59
2023/02/13 12:57:43;;;;;;;144.18;8.02;;;;;;;;;;5050601;28;21110;-59
2023/02/13 13:00:08;;;;;;;151.35;8.18;;;;;;;;;;5068610;28;20031;-59
2023/02/13 13:02:46;;;;;;;178.50;9.23;;;;;;;;;;5068065;28;20017;-59
2023/02/13 13:05:26;;;;;;;150.32;8.65;;;;;;;;;;5068625;28;20243;-59
2023/02/13 13:08:09;;;;;;;139.07;8.60;;;;;;;;;;5068156;28;20620;-59
2023/02/13 13:10:57;;;;;;;197.02;10.45;;;;;;;;;;5066129;28;20123;-57
2023/02/13 13:13:30;;;;;;;123.07;8.07;;;;;;;;;;5067465;28;20296;-59
2023/02/13 13:15:59;;;;;;;137.25;8.55;;;;;;;;;;5067634;28;20033;-58
2023/02/13 13:18:36;;;;;;;165.43;8.43;;;;;;;;;;5070379;28;20814;-58
2023/02/13 13:21:11;;;;;;;145.85;8.20;;;;;;;;;;5066257;28;20048;-59
2023/02/13 13:23:42;;;;;;;161.07;8.45;;;;;;;;;;5068518;28;20085;-59
2023/02/13 13:26:10;;;;;;;140.55;8.32;;;;;;;;;;5067737;28;20113;-59
2023/02/13 13:28:38;;;;;;;147.70;6.75;;;;;;;;;;5067003;28;20008;-59
2023/02/13 13:31:04;;;;;;;187.35;9.82;;;;;;;;;;5066740;28;20029;-59
2023/02/13 13:33:29;;;;;;;151.25;8.48;;;;;;;;;;5065532;28;20085;-59
2023/02/13 13:36:08;;;;;;;151.52;8.77;;;;;;;;;;5067702;28;20242;-58
2023/02/13 13:38:33;;;;;;;129.90;8.02;;;;;;;;;;5066501;28;20117;-59
2023/02/13 13:41:11;;;;;;;138.23;7.80;;;;;;;;;;5068687;28;20419;-57
2023/02/13 13:43:54;;;;;;;149.75;8.10;;;;;;;;;;5067175;28;20020;-59
2023/02/13 13:46:26;;;;;;;173.85;8.98;;;;;;;;;;5065749;28;20827;-59
2023/02/13 13:49:13;;;;;;;129.80;7.70;;;;;;;;;;5068911;28;20028;-58
2023/02/13 13:51:38;;;;;;;197.77;10.02;;;;;;;;;;5067684;28;20036;-59
2023/02/13 13:54:06;;;;;;;139.35;7.57;;;;;;;;;;5066694;28;20031;-59
2023/02/13 13:56:50;;;;;;;171.68;8.88;;;;;;;;;;5068355;28;20576;-58
2023/02/13 13:59:17;;;;;;;150.43;8.35;;;;;;;;;;5068753;28;20026;-59
2023/02/13 14:01:42;;;;;;;222.35;11.35;;;;;;;;;;5066736;28;20084;-59
2023/02/13 14:04:26;;;;;;;174.33;8.60;;;;;;;;;;5067969;28;20055;-59
2023/02/13 14:06:58;;;;;;;145.73;8.10;;;;;;;;;;5065510;28;20330;-58
2023/02/13 14:09:26;;;;;;;143.50;8.07;;;;;;;;;;5067246;28;20051;-59
2023/02/13 14:11:51;;;;;;;227.93;11.73;;;;;;;;;;5065207;28;20585;-59
2023/02/13 14:14:25;;;;;;;134.25;7.95;;;;;;;;;;5069627;28;20024;-59
2023/02/13 14:16:51;;;;;;;166.88;8.85;;;;;;;;;;5066172;28;20432;-58
2023/02/13 14:19:45;;;;;;;144.48;8.27;;;;;;;;;;5067853;28;20046;-60
2023/02/13 14:22:26;;;;;;;144.68;8.30;;;;;;;;;;5044117;28;20176;-58
2023/02/13 14:24:56;;;;;;;157.48;9.20;;;;;;;;;;5068422;28;20028;-60
2023/02/13 14:27:22;;;;;;;103.75;7.05;;;;;;;;;;5067483;28;20032;-58
2023/02/13 14:29:48;;;;;;;131.23;7.70;;;;;;;;;;5068041;28;20043;-59
2023/02/13 14:32:31;;;;;;;157.63;9.20;;;;;;;;;;5064524;28;20117;-58
2023/02/13 14:34:58;;;;;;;110.72;7.63;;;;;;;;;;5069115;28;20111;-59
2023/02/13 14:37:33;;;;;;;124.75;7.75;;;;;;;;;;5066387;28;20093;-58
2023/02/13 14:40:16;;;;;;;119.43;7.32;;;;;;;;;;5067153;28;20572;-57
2023/02/13 14:42:43;;;;;;;140.60;7.20;;;;;;;;;;5065403;28;20494;-58
2023/02/13 14:45:15;;;;;;;149.43;8.23;;;;;;;;;;5065366;28;20438;-57
2023/02/13 14:47:42;;;;;;;122.50;7.32;;;;;;;;;;5086800;28;20028;-57
2023/02/13 14:50:14;;;;;;;137.88;7.95;;;;;;;;;;5085847;28;20019;-59
2023/02/13 14:52:42;;;;;;;131.18;7.75;;;;;;;;;;5085867;28;20661;-58
2023/02/13 14:55:42;;;;;;;137.30;8.00;;;;;;;;;;5087353;28;20032;-58
2023/02/13 14:58:13;;;;;;;137.38;7.72;;;;;;;;;;4995899;28;20105;-59
2023/02/13 15:00:42;;;;;;;214.35;10.93;;;;;;;;;;5070100;28;20027;-58
2023/02/13 15:03:25;;;;;;;145.43;8.40;;;;;;;;;;5086465;28;20024;-58
2023/02/13 15:05:52;;;;;;;132.32;7.82;;;;;;;;;;5087385;28;20036;-58